createdAt,value
2018-04-22T00:00:28.591Z,94.90
2018-04-22T00:02:55.133Z,94.90
2018-04-22T00:05:21.147Z,95.30
2018-04-22T00:07:47.898Z,95.50
2018-04-22T00:10:14.645Z,95.70
2018-04-22T00:12:41.399Z,96.30
2018-04-22T00:15:08.137Z,96.30
2018-04-22T00:17:34.145Z,96.30
2018-04-22T00:20:00.141Z,96.60
2018-04-22T00:22:26.138Z,96.90
2018-04-22T00:24:52.145Z,97.20
2018-04-22T00:27:18.154Z,97.80
2018-04-22T00:29:44.162Z,98.50
2018-04-22T00:32:10.970Z,99.40
2018-04-22T00:34:36.969Z,99.40
2018-04-22T00:37:02.970Z,99.90
2018-04-22T00:39:29.782Z,99.90
2018-04-22T00:41:55.769Z,99.90
2018-04-22T00:44:22.522Z,99.90
2018-04-22T00:46:49.257Z,99.90
2018-04-22T00:49:15.266Z,99.90
2018-04-22T00:51:41.272Z,99.90
2018-04-22T00:54:19.528Z,99.90
2018-04-22T00:56:45.533Z,99.90
2018-04-22T00:59:11.533Z,99.90
2018-04-22T01:01:37.520Z,99.90
2018-04-22T01:04:03.594Z,99.90
2018-04-22T01:06:29.585Z,99.90
2018-04-22T01:08:55.585Z,99.90
2018-04-22T01:11:22.343Z,99.90
2018-04-22T01:13:49.157Z,99.90
2018-04-22T01:16:15.290Z,99.90
2018-04-22T01:18:41.314Z,99.90
2018-04-22T01:21:07.348Z,99.90
2018-04-22T01:23:33.367Z,99.90
2018-04-22T01:25:59.395Z,99.90
2018-04-22T01:28:25.413Z,99.90
2018-04-22T01:30:52.178Z,99.90
2018-04-22T01:33:18.197Z,99.90
2018-04-22T01:35:44.972Z,99.90
2018-04-22T01:38:11.020Z,99.90
2018-04-22T01:40:37.056Z,99.90
2018-04-22T01:43:03.134Z,99.90
2018-04-22T01:45:29.161Z,99.90
2018-04-22T01:47:55.192Z,99.90
2018-04-22T01:50:21.202Z,99.90
2018-04-22T01:52:47.385Z,99.90
2018-04-22T01:55:13.404Z,99.90
2018-04-22T01:57:39.419Z,99.90
2018-04-22T02:00:05.441Z,99.90
2018-04-22T02:02:31.450Z,99.90
2018-04-22T02:04:58.208Z,99.90
2018-04-22T02:07:24.963Z,99.90
2018-04-22T02:09:50.986Z,99.90
2018-04-22T02:12:17.751Z,99.90
2018-04-22T02:14:43.766Z,99.90
2018-04-22T02:17:09.790Z,99.90
2018-04-22T02:19:35.815Z,99.90
2018-04-22T02:22:01.969Z,99.90
2018-04-22T02:24:27.983Z,99.90
2018-04-22T02:26:54.006Z,99.90
2018-04-22T02:29:20.174Z,99.90
2018-04-22T02:31:46.209Z,99.90
2018-04-22T02:34:12.231Z,99.90
2018-04-22T02:36:38.264Z,99.90
2018-04-22T02:39:04.287Z,99.90
2018-04-22T02:41:30.307Z,99.90
2018-04-22T02:43:56.334Z,99.90
2018-04-22T02:46:22.390Z,99.90
2018-04-22T02:48:48.410Z,99.90
2018-04-22T02:51:14.474Z,99.90
2018-04-22T02:53:40.498Z,99.90
2018-04-22T02:56:06.544Z,99.90
2018-04-22T02:58:32.556Z,99.90
2018-04-22T03:00:58.579Z,99.90
2018-04-22T03:03:24.602Z,99.90
2018-04-22T03:05:51.358Z,99.90
2018-04-22T03:08:18.114Z,99.90
2018-04-22T03:10:44.878Z,99.90
2018-04-22T03:13:10.927Z,99.90
2018-04-22T03:15:36.946Z,99.90
2018-04-22T03:18:03.129Z,99.90
2018-04-22T03:20:29.168Z,99.90
2018-04-22T03:22:55.196Z,99.90
2018-04-22T03:25:21.226Z,99.90
2018-04-22T03:27:47.241Z,99.90
2018-04-22T03:30:13.268Z,99.90
2018-04-22T03:32:39.341Z,99.90
2018-04-22T03:35:05.371Z,99.90
2018-04-22T03:37:31.404Z,99.90
2018-04-22T03:39:57.425Z,99.90
2018-04-22T03:42:23.450Z,99.90
2018-04-22T03:44:49.469Z,99.90
2018-04-22T03:47:15.488Z,99.90
2018-04-22T03:49:42.259Z,99.90
2018-04-22T03:52:08.335Z,99.90
2018-04-22T03:54:34.494Z,99.90
2018-04-22T03:57:00.516Z,99.90
2018-04-22T03:59:26.540Z,99.90
2018-04-22T04:01:52.560Z,99.90
2018-04-22T04:04:18.605Z,99.90
2018-04-22T04:06:44.617Z,99.90
2018-04-22T04:09:10.636Z,99.90
2018-04-22T04:11:37.386Z,99.90
2018-04-22T04:14:04.214Z,99.90
2018-04-22T04:16:30.233Z,99.90
2018-04-22T04:19:08.475Z,99.90
2018-04-22T04:21:47.046Z,99.90
2018-04-22T04:27:24.485Z,99.90
2018-04-22T04:29:50.530Z,99.90
2018-04-22T04:32:16.561Z,99.90
2018-04-22T04:34:42.606Z,99.90
2018-04-22T04:37:08.640Z,99.90
2018-04-22T04:39:34.664Z,99.90
2018-04-22T04:42:00.672Z,99.90
2018-04-22T04:44:26.708Z,99.90
2018-04-22T04:46:52.730Z,99.90
2018-04-22T04:49:18.861Z,99.90
2018-04-22T04:51:44.998Z,99.90
2018-04-22T04:54:11.152Z,99.90
2018-04-22T04:56:37.297Z,99.90
2018-04-22T04:59:03.353Z,99.90
2018-04-22T05:01:30.295Z,99.90
2018-04-22T05:03:57.062Z,99.90
2018-04-22T05:06:23.880Z,99.90
2018-04-22T05:08:49.916Z,99.90
2018-04-22T05:11:15.939Z,99.90
2018-04-22T05:13:42.291Z,99.90
2018-04-22T05:16:08.309Z,99.90
2018-04-22T05:18:34.342Z,99.90
2018-04-22T05:21:00.366Z,99.90
2018-04-22T05:23:26.393Z,99.90
2018-04-22T05:25:52.483Z,99.90
2018-04-22T05:28:19.326Z,99.90
2018-04-22T05:30:46.070Z,99.90
2018-04-22T05:33:12.671Z,99.90
2018-04-22T05:35:39.424Z,99.90
2018-04-22T05:38:06.951Z,99.90
2018-04-22T05:40:33.437Z,99.90
2018-04-22T05:42:59.831Z,99.90
2018-04-22T05:45:26.230Z,99.90
2018-04-22T05:47:52.263Z,99.90
2018-04-22T05:50:18.300Z,99.90
2018-04-22T05:52:44.399Z,99.90
2018-04-22T05:55:10.568Z,99.90
2018-04-22T05:57:37.323Z,99.90
2018-04-22T06:00:04.101Z,99.90
2018-04-22T06:02:37.067Z,99.90
2018-04-22T06:05:03.911Z,99.90
2018-04-22T06:07:29.928Z,99.90
2018-04-22T06:09:55.958Z,99.90
2018-04-22T06:12:21.983Z,99.90
2018-04-22T06:14:48.015Z,99.90
2018-04-22T06:17:14.065Z,99.90
2018-04-22T06:19:40.101Z,99.90
2018-04-22T06:22:06.144Z,99.90
2018-04-22T06:24:32.157Z,99.90
2018-04-22T06:26:58.182Z,99.90
2018-04-22T06:29:24.193Z,99.90
2018-04-22T06:31:50.225Z,99.90
2018-04-22T06:34:16.274Z,99.90
2018-04-22T06:36:42.298Z,99.80
2018-04-22T06:39:08.306Z,99.70
2018-04-22T06:41:34.347Z,99.50
2018-04-22T06:44:00.363Z,99.60
2018-04-22T06:46:26.378Z,99.20
2018-04-22T06:48:52.396Z,96.80
2018-04-22T06:51:18.422Z,94.50
2018-04-22T06:53:44.435Z,91.50
2018-04-22T06:56:11.210Z,89.60
2018-04-22T06:58:37.226Z,89.40
2018-04-22T07:01:03.998Z,82.10
2018-04-22T07:03:30.023Z,82.10
2018-04-22T07:05:56.051Z,77.70
2018-04-22T07:08:22.817Z,72.70
2018-04-22T07:10:48.863Z,72.70
2018-04-22T07:13:14.891Z,71.80
2018-04-22T07:15:40.913Z,72.80
2018-04-22T07:18:07.672Z,67.00
2018-04-22T07:20:33.695Z,66.90
2018-04-22T07:23:00.459Z,59.90
2018-04-22T07:25:26.551Z,59.90
2018-04-22T07:27:52.588Z,58.70
2018-04-22T07:30:18.609Z,59.40
2018-04-22T07:32:44.642Z,57.90
2018-04-22T07:35:10.693Z,57.60
2018-04-22T07:37:36.714Z,56.40
2018-04-22T07:40:02.770Z,61.40
2018-04-22T07:42:28.827Z,57.80
2018-04-22T07:44:54.841Z,57.10
2018-04-22T07:47:20.879Z,57.20
2018-04-22T07:49:47.011Z,58.50
2018-04-22T07:52:13.044Z,57.00
2018-04-22T07:54:39.077Z,58.30
2018-04-22T07:57:05.154Z,58.20
2018-04-22T07:59:31.917Z,55.50
2018-04-22T08:01:58.014Z,55.50
2018-04-22T08:04:24.038Z,55.00
2018-04-22T08:06:50.086Z,54.40
2018-04-22T08:09:16.154Z,54.70
2018-04-22T08:11:42.180Z,54.60
2018-04-22T08:14:08.944Z,53.70
2018-04-22T08:16:35.863Z,52.60
2018-04-22T08:19:01.887Z,52.50
2018-04-22T08:21:27.901Z,56.70
2018-04-22T08:23:53.918Z,56.10
2018-04-22T08:26:19.947Z,55.10
2018-04-22T08:28:45.975Z,55.80
2018-04-22T08:31:11.996Z,51.60
2018-04-22T08:33:38.775Z,52.60
2018-04-22T08:36:04.866Z,52.30
2018-04-22T08:38:31.021Z,50.30
2018-04-22T08:40:57.049Z,51.30
2018-04-22T08:43:23.079Z,52.80
2018-04-22T08:45:49.226Z,51.50
2018-04-22T08:48:15.261Z,53.40
2018-04-22T08:50:41.299Z,56.90
2018-04-22T08:53:07.337Z,54.40
2018-04-22T08:55:33.454Z,51.50
2018-04-22T08:57:59.470Z,51.30
2018-04-22T09:00:25.509Z,51.20
2018-04-22T09:02:51.522Z,53.50
2018-04-22T09:05:17.622Z,54.00
2018-04-22T09:07:43.634Z,54.40
2018-04-22T09:10:09.652Z,54.80
2018-04-22T09:12:35.665Z,52.30
2018-04-22T09:15:01.699Z,52.90
2018-04-22T09:17:27.714Z,49.00
2018-04-22T09:19:54.471Z,51.70
2018-04-22T09:22:21.236Z,46.70
2018-04-22T09:24:47.261Z,46.70
2018-04-22T09:27:13.589Z,49.50
2018-04-22T09:29:40.350Z,46.50
2018-04-22T09:32:07.120Z,46.10
2018-04-22T09:34:33.158Z,46.10
2018-04-22T09:36:59.183Z,45.10
2018-04-22T09:39:25.205Z,46.20
2018-04-22T09:41:52.031Z,46.30
2018-04-22T09:44:18.074Z,46.20
2018-04-22T09:46:44.094Z,46.30
2018-04-22T09:49:10.159Z,46.30
2018-04-22T09:51:36.947Z,46.60
2018-04-22T09:54:03.033Z,46.40
2018-04-22T09:56:29.174Z,47.20
2018-04-22T09:58:55.211Z,48.70
2018-04-22T10:01:21.362Z,47.40
2018-04-22T10:03:48.322Z,44.70
2018-04-22T10:06:15.169Z,46.40
2018-04-22T10:08:41.921Z,46.80
2018-04-22T10:11:07.968Z,46.30
2018-04-22T10:13:34.781Z,47.40
2018-04-22T10:16:00.855Z,47.20
2018-04-22T10:18:27.696Z,45.30
2018-04-22T10:20:53.716Z,45.20
2018-04-22T10:23:19.738Z,46.50
2018-04-22T10:25:45.761Z,45.60
2018-04-22T10:28:11.792Z,44.40
2018-04-22T10:30:37.834Z,44.60
2018-04-22T10:33:03.888Z,47.10
2018-04-22T10:35:29.949Z,47.60
2018-04-22T10:37:56.061Z,46.30
2018-04-22T10:40:22.114Z,48.10
2018-04-22T10:42:48.923Z,48.10
2018-04-22T10:45:15.036Z,48.00
2018-04-22T10:47:41.866Z,46.80
2018-04-22T10:50:07.891Z,46.80
2018-04-22T10:52:34.045Z,46.00
2018-04-22T10:55:00.901Z,48.10
2018-04-22T10:57:26.938Z,48.20
2018-04-22T10:59:53.739Z,47.10
2018-04-22T11:02:20.552Z,47.20
2018-04-22T11:04:47.393Z,46.80
2018-04-22T11:07:13.576Z,46.80
2018-04-22T11:09:40.375Z,45.70
2018-04-22T11:12:06.554Z,45.60
2018-04-22T11:14:32.654Z,47.10
2018-04-22T11:16:58.687Z,46.40
2018-04-22T11:19:24.717Z,49.80
2018-04-22T11:21:50.746Z,46.60
2018-04-22T11:24:16.782Z,45.80
2018-04-22T11:26:42.810Z,43.00
2018-04-22T11:29:08.834Z,45.30
2018-04-22T11:31:34.871Z,47.60
2018-04-22T11:34:00.906Z,46.80
2018-04-22T11:36:26.946Z,44.60
2018-04-22T11:38:53.025Z,46.50
2018-04-22T11:41:19.798Z,44.80
2018-04-22T11:43:45.826Z,44.20
2018-04-22T11:46:12.720Z,46.20
2018-04-22T11:48:38.750Z,46.10
2018-04-22T11:51:04.786Z,45.30
2018-04-22T11:53:30.864Z,44.30
2018-04-22T11:55:56.854Z,42.70
2018-04-22T11:58:22.947Z,42.00
2018-04-22T12:00:49.741Z,44.40
2018-04-22T12:03:15.789Z,44.00
2018-04-22T12:05:41.828Z,43.10
2018-04-22T12:08:07.902Z,45.40
2018-04-22T12:10:33.928Z,45.90
2018-04-22T12:12:59.961Z,45.00
2018-04-22T12:15:25.995Z,43.40
2018-04-22T12:17:52.030Z,42.00
2018-04-22T12:20:18.098Z,44.60
2018-04-22T12:22:44.876Z,42.50
2018-04-22T12:25:10.906Z,42.40
2018-04-22T12:27:36.937Z,41.80
2018-04-22T12:30:02.972Z,42.40
2018-04-22T12:32:29.012Z,40.90
2018-04-22T12:34:55.112Z,43.20
2018-04-22T12:37:21.268Z,41.20
2018-04-22T12:39:48.106Z,45.60
2018-04-22T12:42:14.974Z,44.20
2018-04-22T12:44:41.746Z,45.00
2018-04-22T12:47:07.784Z,44.50
2018-04-22T12:49:34.545Z,41.30
2018-04-22T12:52:00.559Z,41.10
2018-04-22T12:54:27.323Z,43.60
2018-04-22T12:56:54.133Z,40.60
2018-04-22T12:59:20.220Z,40.50
2018-04-22T13:01:46.255Z,40.60
2018-04-22T13:04:12.301Z,41.80
2018-04-22T13:06:38.385Z,43.40
2018-04-22T13:09:05.275Z,41.10
2018-04-22T13:11:32.090Z,42.90
2018-04-22T13:13:58.146Z,42.90
2018-04-22T13:16:24.183Z,41.30
2018-04-22T13:18:50.309Z,41.10
2018-04-22T13:21:16.337Z,40.30
2018-04-22T13:23:42.369Z,43.60
2018-04-22T13:26:08.421Z,40.50
2018-04-22T13:28:35.992Z,42.40
2018-04-22T13:31:02.139Z,42.30
2018-04-22T13:33:28.980Z,39.60
2018-04-22T13:35:55.018Z,39.60
2018-04-22T13:38:21.075Z,39.40
2018-04-22T13:40:47.111Z,39.50
2018-04-22T13:43:13.950Z,41.90
2018-04-22T13:45:39.984Z,41.90
2018-04-22T13:48:06.737Z,42.20
2018-04-22T13:50:32.792Z,42.30
2018-04-22T13:52:58.921Z,41.20
2018-04-22T13:55:25.791Z,39.40
2018-04-22T13:57:52.622Z,39.20
2018-04-22T14:00:18.673Z,39.10
2018-04-22T14:02:44.838Z,38.70
2018-04-22T14:05:11.869Z,39.50
2018-04-22T14:07:38.631Z,40.60
2018-04-22T14:10:05.398Z,40.30
2018-04-22T14:12:31.414Z,40.30
2018-04-22T14:14:57.444Z,42.80
2018-04-22T14:17:23.570Z,41.00
2018-04-22T14:19:49.705Z,38.90
2018-04-22T14:22:15.670Z,38.90
2018-04-22T14:24:42.606Z,40.50
2018-04-22T14:27:08.662Z,40.40
2018-04-22T14:29:35.441Z,42.10
2018-04-22T14:32:01.551Z,42.00
2018-04-22T14:34:28.410Z,41.00
2018-04-22T14:36:55.183Z,42.40
2018-04-22T14:39:21.211Z,42.60
2018-04-22T14:41:48.038Z,43.40
2018-04-22T14:44:26.473Z,43.40
2018-04-22T14:46:53.319Z,45.00
2018-04-22T14:49:20.814Z,44.80
2018-04-22T14:51:47.585Z,42.80
2018-04-22T14:54:13.663Z,42.80
2018-04-22T14:56:39.705Z,40.40
2018-04-22T14:59:05.722Z,41.10
2018-04-22T15:01:31.765Z,42.20
2018-04-22T15:03:57.782Z,39.00
2018-04-22T15:06:23.814Z,38.80
2018-04-22T15:08:49.991Z,39.80
2018-04-22T15:11:16.045Z,41.90
2018-04-22T15:13:42.075Z,43.10
2018-04-22T15:16:08.114Z,41.30
2018-04-22T15:18:34.249Z,41.00
2018-04-22T15:21:00.274Z,41.60
2018-04-22T15:23:26.301Z,42.40
2018-04-22T15:25:52.336Z,42.40
2018-04-22T15:28:18.410Z,44.90
2018-04-22T15:30:45.178Z,45.40
2018-04-22T15:33:11.215Z,45.30
2018-04-22T15:35:37.987Z,44.70
2018-04-22T15:38:04.031Z,44.70
2018-04-22T15:40:30.098Z,42.60
2018-04-22T15:42:56.134Z,41.50
2018-04-22T15:45:22.162Z,42.40
2018-04-22T15:47:48.177Z,42.50
2018-04-22T15:50:14.254Z,42.20
2018-04-22T15:52:40.290Z,41.60
2018-04-22T15:55:06.429Z,42.40
2018-04-22T15:57:32.450Z,42.00
2018-04-22T15:59:58.497Z,39.50
2018-04-22T16:02:24.733Z,41.00
2018-04-22T16:04:50.773Z,41.30
2018-04-22T16:07:16.911Z,41.70
2018-04-22T16:09:42.941Z,42.50
2018-04-22T16:12:08.985Z,40.70
2018-04-22T16:14:35.085Z,41.20
2018-04-22T16:17:01.043Z,42.60
2018-04-22T16:19:27.072Z,43.40
2018-04-22T16:21:53.106Z,40.70
2018-04-22T16:24:19.142Z,41.00
2018-04-22T16:26:45.169Z,40.90
2018-04-22T16:29:11.198Z,42.20
2018-04-22T16:31:37.290Z,41.90
2018-04-22T16:34:03.338Z,42.60
2018-04-22T16:36:30.100Z,44.40
2018-04-22T16:38:56.135Z,44.30
2018-04-22T16:41:22.921Z,44.90
2018-04-22T16:43:48.958Z,44.90
2018-04-22T16:46:14.974Z,45.20
2018-04-22T16:48:41.022Z,44.90
2018-04-22T16:51:07.050Z,44.90
2018-04-22T16:53:33.094Z,44.20
2018-04-22T16:55:59.126Z,46.00
2018-04-22T16:58:25.155Z,48.20
2018-04-22T17:00:51.187Z,46.50
2018-04-22T17:03:17.224Z,48.20
2018-04-22T17:05:43.250Z,49.20
2018-04-22T17:08:10.026Z,49.10
2018-04-22T17:10:36.065Z,49.10
2018-04-22T17:13:02.090Z,48.10
2018-04-22T17:15:28.172Z,48.80
2018-04-22T17:17:54.200Z,48.90
2018-04-22T17:20:20.218Z,50.30
2018-04-22T17:22:46.261Z,51.80
2018-04-22T17:25:12.286Z,52.10
2018-04-22T17:27:38.295Z,52.90
2018-04-22T17:30:05.213Z,53.60
2018-04-22T17:32:31.970Z,53.40
2018-04-22T17:34:58.002Z,53.40
2018-04-22T17:37:24.022Z,54.90
2018-04-22T17:39:50.064Z,54.90
2018-04-22T17:42:16.081Z,55.80
2018-04-22T17:44:42.101Z,57.20
2018-04-22T17:47:08.110Z,57.90
2018-04-22T17:49:34.895Z,57.40
2018-04-22T17:52:01.158Z,57.40
2018-04-22T17:54:27.179Z,56.70
2018-04-22T17:56:53.347Z,56.90
2018-04-22T17:59:19.368Z,56.80
2018-04-22T18:01:45.406Z,58.00
2018-04-22T18:04:11.435Z,56.40
2018-04-22T18:06:37.450Z,57.00
2018-04-22T18:09:03.469Z,58.30
2018-04-22T18:11:30.242Z,58.10
2018-04-22T18:13:56.262Z,58.10
2018-04-22T18:16:22.286Z,58.30
2018-04-22T18:18:49.061Z,58.70
2018-04-22T18:21:15.082Z,58.70
2018-04-22T18:23:41.846Z,59.40
2018-04-22T18:26:07.872Z,59.40
2018-04-22T18:28:34.635Z,59.40
2018-04-22T18:31:00.658Z,59.30
2018-04-22T18:33:27.419Z,60.40
2018-04-22T18:35:53.509Z,60.40
2018-04-22T18:38:19.526Z,59.30
2018-04-22T18:40:45.684Z,58.90
2018-04-22T18:43:11.726Z,59.30
2018-04-22T18:45:37.746Z,59.20
2018-04-22T18:48:03.779Z,59.40
2018-04-22T18:50:29.810Z,60.30
2018-04-22T18:52:55.818Z,60.60
2018-04-22T18:55:21.867Z,61.20
2018-04-22T18:57:47.896Z,61.10
2018-04-22T19:00:13.972Z,61.10
2018-04-22T19:02:40.011Z,60.70
2018-04-22T19:05:06.047Z,60.80
2018-04-22T19:07:32.105Z,59.40
2018-04-22T19:09:58.134Z,57.00
2018-04-22T19:12:24.171Z,56.10
2018-04-22T19:14:50.189Z,55.40
2018-04-22T19:17:16.221Z,54.50
2018-04-22T19:19:42.241Z,55.20
2018-04-22T19:22:08.402Z,54.80
2018-04-22T19:24:34.419Z,54.30
2018-04-22T19:27:00.463Z,53.40
2018-04-22T19:29:26.483Z,52.70
2018-04-22T19:31:52.544Z,52.80
2018-04-22T19:34:18.565Z,52.10
2018-04-22T19:36:44.584Z,52.40
2018-04-22T19:39:10.601Z,51.80
2018-04-22T19:41:36.618Z,50.90
2018-04-22T19:44:03.372Z,51.10
2018-04-22T19:46:30.144Z,51.20
2018-04-22T19:48:56.169Z,51.10
2018-04-22T19:51:22.198Z,51.40
2018-04-22T19:53:48.976Z,51.20
2018-04-22T19:56:14.996Z,50.60
2018-04-22T19:58:41.750Z,50.60
2018-04-22T20:01:07.803Z,50.70
2018-04-22T20:03:33.943Z,50.00
2018-04-22T20:05:59.937Z,50.50
2018-04-22T20:08:26.701Z,50.10
2018-04-22T20:10:53.654Z,50.60
2018-04-22T20:13:20.482Z,49.70
2018-04-22T20:15:46.501Z,49.70
2018-04-22T20:18:12.557Z,49.80
2018-04-22T20:20:38.587Z,50.20
2018-04-22T20:23:04.626Z,49.70
2018-04-22T20:25:30.649Z,49.70
2018-04-22T20:27:56.700Z,50.10
2018-04-22T20:30:22.718Z,50.30
2018-04-22T20:32:48.754Z,50.60
2018-04-22T20:35:14.775Z,51.00
2018-04-22T20:37:40.831Z,51.20
2018-04-22T20:40:06.877Z,51.50
2018-04-22T20:42:32.948Z,52.10
2018-04-22T20:44:58.916Z,51.60
2018-04-22T20:47:24.962Z,52.20
2018-04-22T20:49:51.673Z,52.00
2018-04-22T20:52:18.441Z,52.40
2018-04-22T20:54:44.528Z,52.40
2018-04-22T20:57:10.569Z,52.40
2018-04-22T20:59:36.599Z,52.80
2018-04-22T21:02:02.615Z,52.40
2018-04-22T21:04:28.866Z,52.50
2018-04-22T21:06:54.925Z,52.40
2018-04-22T21:09:20.973Z,53.30
2018-04-22T21:11:46.984Z,54.40
2018-04-22T21:14:13.011Z,54.40
2018-04-22T21:16:39.029Z,55.30
2018-04-22T21:19:05.114Z,55.70
2018-04-22T21:21:31.186Z,56.20
2018-04-22T21:23:57.281Z,56.40
2018-04-22T21:26:23.305Z,56.20
2018-04-22T21:28:49.379Z,57.30
2018-04-22T21:31:16.141Z,57.10
2018-04-22T21:33:43.979Z,57.00
2018-04-22T21:36:10.006Z,58.00
2018-04-22T21:38:36.031Z,57.80
2018-04-22T21:41:02.057Z,57.90
2018-04-22T21:43:28.098Z,57.00
2018-04-22T21:45:54.111Z,57.00
2018-04-22T21:48:20.149Z,57.20
2018-04-22T21:50:46.192Z,56.90
2018-04-22T21:53:12.215Z,57.30
2018-04-22T21:55:38.239Z,57.60
2018-04-22T21:58:05.024Z,56.80
2018-04-22T22:00:31.061Z,56.80
2018-04-22T22:02:57.086Z,56.80
2018-04-22T22:05:23.102Z,56.20
2018-04-22T22:07:49.858Z,56.20
2018-04-22T22:10:16.626Z,55.20
2018-04-22T22:12:42.641Z,55.20
2018-04-22T22:15:09.415Z,54.40
2018-04-22T22:17:35.434Z,54.40
2018-04-22T22:20:02.198Z,54.30
2018-04-22T22:22:28.210Z,54.30
2018-04-22T22:24:54.224Z,54.40
2018-04-22T22:27:20.233Z,55.50
2018-04-22T22:29:46.301Z,55.00
2018-04-22T22:32:12.318Z,55.50
2018-04-22T22:34:38.342Z,55.00
2018-04-22T22:37:04.362Z,55.60
2018-04-22T22:39:30.378Z,55.50
2018-04-22T22:41:57.131Z,55.60
2018-04-22T22:44:23.909Z,55.90
2018-04-22T22:46:49.953Z,55.90
2018-04-22T22:49:15.998Z,55.30
2018-04-22T22:51:42.023Z,54.90
2018-04-22T22:54:08.047Z,55.80
2018-04-22T22:56:34.068Z,55.60
2018-04-22T22:59:00.082Z,54.70
2018-04-22T23:01:26.114Z,55.30
2018-04-22T23:03:52.132Z,55.60
2018-04-22T23:06:18.158Z,55.50
2018-04-22T23:08:44.165Z,55.10
2018-04-22T23:11:10.203Z,55.60
2018-04-22T23:13:36.227Z,55.00
2018-04-22T23:16:02.253Z,53.90
2018-04-22T23:18:29.006Z,54.80
2018-04-22T23:20:55.764Z,55.20
2018-04-22T23:23:28.705Z,55.20
2018-04-22T23:25:54.726Z,54.80
2018-04-22T23:28:20.753Z,55.40
2018-04-22T23:30:46.765Z,55.00
2018-04-22T23:33:12.798Z,55.20
2018-04-22T23:35:39.540Z,54.90
2018-04-22T23:38:06.293Z,54.60
2018-04-22T23:40:33.117Z,55.10
2018-04-22T23:42:59.129Z,55.10
2018-04-22T23:45:25.158Z,55.70
2018-04-22T23:47:51.185Z,55.70
2018-04-22T23:50:17.200Z,55.80
2018-04-22T23:52:43.958Z,56.00
2018-04-22T23:55:10.733Z,56.00
2018-04-22T23:57:36.764Z,56.00
